sensor_id;sensor_type;location;lat;lon;timestamp;P1;durP1;ratioP1;P2;durP2;ratioP2
74620;SDS011;75998;47.550;19.254;2024-03-08T00:01:16;43.20;;;22.95;;
74620;SDS011;75998;47.550;19.254;2024-03-08T00:03:50;45.17;;;21.73;;
74620;SDS011;75998;47.550;19.254;2024-03-08T00:06:51;44.78;;;24.48;;
74620;SDS011;75998;47.550;19.254;2024-03-08T00:09:19;46.33;;;22.88;;
74620;SDS011;75998;47.550;19.254;2024-03-08T00:11:46;36.83;;;16.17;;
74620;SDS011;75998;47.550;19.254;2024-03-08T00:14:12;48.17;;;24.73;;
74620;SDS011;75998;47.550;19.254;2024-03-08T00:16:41;54.42;;;26.73;;
74620;SDS011;75998;47.550;19.254;2024-03-08T00:19:13;60.15;;;28.05;;
74620;SDS011;75998;47.550;19.254;2024-03-08T00:21:38;58.10;;;28.08;;
74620;SDS011;75998;47.550;19.254;2024-03-08T00:24:07;43.75;;;21.33;;
74620;SDS011;75998;47.550;19.254;2024-03-08T00:26:35;52.10;;;26.63;;
74620;SDS011;75998;47.550;19.254;2024-03-08T00:29:01;53.33;;;26.38;;
74620;SDS011;75998;47.550;19.254;2024-03-08T00:31:26;52.83;;;27.83;;
74620;SDS011;75998;47.550;19.254;2024-03-08T00:33:53;56.03;;;27.08;;
74620;SDS011;75998;47.550;19.254;2024-03-08T00:36:18;72.57;;;32.13;;
74620;SDS011;75998;47.550;19.254;2024-03-08T00:38:45;48.13;;;25.75;;
74620;SDS011;75998;47.550;19.254;2024-03-08T00:41:22;58.25;;;28.55;;
74620;SDS011;75998;47.550;19.254;2024-03-08T00:43:51;61.40;;;29.40;;
74620;SDS011;75998;47.550;19.254;2024-03-08T00:46:17;63.30;;;29.73;;
74620;SDS011;75998;47.550;19.254;2024-03-08T00:49:02;59.50;;;29.08;;
74620;SDS011;75998;47.550;19.254;2024-03-08T00:51:28;59.88;;;29.33;;
74620;SDS011;75998;47.550;19.254;2024-03-08T00:53:54;58.35;;;29.85;;
74620;SDS011;75998;47.550;19.254;2024-03-08T00:56:19;59.53;;;29.70;;
74620;SDS011;75998;47.550;19.254;2024-03-08T00:58:45;63.72;;;27.75;;
74620;SDS011;75998;47.550;19.254;2024-03-08T01:01:12;61.88;;;28.73;;
74620;SDS011;75998;47.550;19.254;2024-03-08T01:03:42;58.83;;;29.02;;
74620;SDS011;75998;47.550;19.254;2024-03-08T01:06:11;58.42;;;28.40;;
74620;SDS011;75998;47.550;19.254;2024-03-08T01:08:40;70.82;;;28.83;;
74620;SDS011;75998;47.550;19.254;2024-03-08T01:11:09;66.05;;;31.67;;
74620;SDS011;75998;47.550;19.254;2024-03-08T01:13:35;59.97;;;30.45;;
74620;SDS011;75998;47.550;19.254;2024-03-08T01:16:01;52.63;;;27.30;;
74620;SDS011;75998;47.550;19.254;2024-03-08T01:18:26;50.60;;;26.90;;
74620;SDS011;75998;47.550;19.254;2024-03-08T01:20:52;56.08;;;29.13;;
74620;SDS011;75998;47.550;19.254;2024-03-08T01:23:17;59.05;;;31.40;;
74620;SDS011;75998;47.550;19.254;2024-03-08T01:25:46;58.40;;;29.52;;
74620;SDS011;75998;47.550;19.254;2024-03-08T01:28:14;66.70;;;31.15;;
74620;SDS011;75998;47.550;19.254;2024-03-08T01:30:40;67.68;;;32.80;;
74620;SDS011;75998;47.550;19.254;2024-03-08T01:33:09;40.65;;;18.05;;
74620;SDS011;75998;47.550;19.254;2024-03-08T01:35:34;52.20;;;25.67;;
74620;SDS011;75998;47.550;19.254;2024-03-08T01:38:00;65.63;;;29.10;;
74620;SDS011;75998;47.550;19.254;2024-03-08T01:40:25;58.67;;;28.85;;
74620;SDS011;75998;47.550;19.254;2024-03-08T01:42:51;47.45;;;21.92;;
74620;SDS011;75998;47.550;19.254;2024-03-08T01:45:18;56.30;;;25.15;;
74620;SDS011;75998;47.550;19.254;2024-03-08T01:47:44;62.15;;;28.00;;
74620;SDS011;75998;47.550;19.254;2024-03-08T01:50:13;57.53;;;28.45;;
74620;SDS011;75998;47.550;19.254;2024-03-08T01:52:39;53.75;;;25.35;;
74620;SDS011;75998;47.550;19.254;2024-03-08T01:55:05;60.75;;;29.48;;
74620;SDS011;75998;47.550;19.254;2024-03-08T01:57:36;63.47;;;28.27;;
74620;SDS011;75998;47.550;19.254;2024-03-08T02:00:06;56.25;;;27.80;;
74620;SDS011;75998;47.550;19.254;2024-03-08T02:02:35;50.17;;;26.17;;
74620;SDS011;75998;47.550;19.254;2024-03-08T02:05:03;48.28;;;24.52;;
74620;SDS011;75998;47.550;19.254;2024-03-08T02:07:43;60.92;;;28.45;;
74620;SDS011;75998;47.550;19.254;2024-03-08T02:10:09;51.42;;;24.02;;
74620;SDS011;75998;47.550;19.254;2024-03-08T02:12:36;44.75;;;21.85;;
74620;SDS011;75998;47.550;19.254;2024-03-08T02:15:03;51.00;;;25.92;;
74620;SDS011;75998;47.550;19.254;2024-03-08T02:17:31;61.80;;;30.33;;
74620;SDS011;75998;47.550;19.254;2024-03-08T02:20:00;47.78;;;22.13;;
74620;SDS011;75998;47.550;19.254;2024-03-08T02:22:28;56.97;;;28.25;;
74620;SDS011;75998;47.550;19.254;2024-03-08T02:24:55;56.85;;;25.08;;
74620;SDS011;75998;47.550;19.254;2024-03-08T02:27:24;67.93;;;31.25;;
74620;SDS011;75998;47.550;19.254;2024-03-08T02:29:50;59.03;;;28.67;;
74620;SDS011;75998;47.550;19.254;2024-03-08T02:32:20;58.63;;;25.17;;
74620;SDS011;75998;47.550;19.254;2024-03-08T02:34:50;45.38;;;21.42;;
74620;SDS011;75998;47.550;19.254;2024-03-08T02:37:16;64.72;;;28.77;;
74620;SDS011;75998;47.550;19.254;2024-03-08T02:39:42;51.15;;;23.77;;
74620;SDS011;75998;47.550;19.254;2024-03-08T02:42:08;64.82;;;28.27;;
74620;SDS011;75998;47.550;19.254;2024-03-08T02:44:33;52.97;;;25.33;;
74620;SDS011;75998;47.550;19.254;2024-03-08T02:46:59;61.55;;;28.65;;
74620;SDS011;75998;47.550;19.254;2024-03-08T02:49:32;59.97;;;26.40;;
74620;SDS011;75998;47.550;19.254;2024-03-08T02:51:57;66.85;;;28.52;;
74620;SDS011;75998;47.550;19.254;2024-03-08T02:54:27;66.43;;;30.15;;
74620;SDS011;75998;47.550;19.254;2024-03-08T02:56:55;59.72;;;28.23;;
74620;SDS011;75998;47.550;19.254;2024-03-08T02:59:21;50.47;;;22.35;;
74620;SDS011;75998;47.550;19.254;2024-03-08T03:01:47;64.53;;;29.02;;
74620;SDS011;75998;47.550;19.254;2024-03-08T03:04:12;71.20;;;30.38;;
74620;SDS011;75998;47.550;19.254;2024-03-08T03:06:40;72.30;;;32.97;;
74620;SDS011;75998;47.550;19.254;2024-03-08T03:09:08;66.25;;;29.25;;
74620;SDS011;75998;47.550;19.254;2024-03-08T03:11:47;72.32;;;32.15;;
74620;SDS011;75998;47.550;19.254;2024-03-08T03:14:12;59.03;;;27.50;;
74620;SDS011;75998;47.550;19.254;2024-03-08T03:16:38;60.60;;;28.13;;
74620;SDS011;75998;47.550;19.254;2024-03-08T03:19:04;55.58;;;27.45;;
74620;SDS011;75998;47.550;19.254;2024-03-08T03:21:30;67.03;;;25.33;;
74620;SDS011;75998;47.550;19.254;2024-03-08T03:23:59;71.80;;;30.63;;
74620;SDS011;75998;47.550;19.254;2024-03-08T03:26:25;69.75;;;31.50;;
74620;SDS011;75998;47.550;19.254;2024-03-08T03:28:51;65.45;;;29.58;;
74620;SDS011;75998;47.550;19.254;2024-03-08T03:31:16;67.90;;;28.65;;
74620;SDS011;75998;47.550;19.254;2024-03-08T03:33:43;65.10;;;29.15;;
74620;SDS011;75998;47.550;19.254;2024-03-08T03:36:09;53.38;;;23.80;;
74620;SDS011;75998;47.550;19.254;2024-03-08T03:38:35;57.60;;;22.10;;
74620;SDS011;75998;47.550;19.254;2024-03-08T03:41:03;71.57;;;32.30;;
74620;SDS011;75998;47.550;19.254;2024-03-08T03:43:35;64.47;;;28.00;;
74620;SDS011;75998;47.550;19.254;2024-03-08T03:46:05;54.75;;;25.38;;
74620;SDS011;75998;47.550;19.254;2024-03-08T03:48:32;60.80;;;28.73;;
74620;SDS011;75998;47.550;19.254;2024-03-08T03:50:57;57.75;;;26.00;;
74620;SDS011;75998;47.550;19.254;2024-03-08T03:53:27;61.33;;;28.45;;
74620;SDS011;75998;47.550;19.254;2024-03-08T03:55:58;72.75;;;29.70;;
74620;SDS011;75998;47.550;19.254;2024-03-08T03:58:24;74.63;;;33.00;;
74620;SDS011;75998;47.550;19.254;2024-03-08T04:00:52;69.28;;;30.05;;
74620;SDS011;75998;47.550;19.254;2024-03-08T04:03:20;66.32;;;31.23;;
74620;SDS011;75998;47.550;19.254;2024-03-08T04:05:46;65.70;;;30.65;;
74620;SDS011;75998;47.550;19.254;2024-03-08T04:08:12;67.43;;;30.40;;
74620;SDS011;75998;47.550;19.254;2024-03-08T04:10:37;63.67;;;30.40;;
74620;SDS011;75998;47.550;19.254;2024-03-08T04:13:03;77.45;;;32.33;;
74620;SDS011;75998;47.550;19.254;2024-03-08T04:15:29;67.20;;;30.58;;
74620;SDS011;75998;47.550;19.254;2024-03-08T04:18:00;68.70;;;30.02;;
74620;SDS011;75998;47.550;19.254;2024-03-08T04:20:25;66.05;;;29.85;;
74620;SDS011;75998;47.550;19.254;2024-03-08T04:22:51;61.35;;;31.48;;
74620;SDS011;75998;47.550;19.254;2024-03-08T04:25:17;73.93;;;32.25;;
74620;SDS011;75998;47.550;19.254;2024-03-08T04:27:42;74.50;;;33.95;;
74620;SDS011;75998;47.550;19.254;2024-03-08T04:30:09;65.85;;;30.70;;
74620;SDS011;75998;47.550;19.254;2024-03-08T04:32:35;60.22;;;27.52;;
74620;SDS011;75998;47.550;19.254;2024-03-08T04:35:03;59.10;;;28.50;;
74620;SDS011;75998;47.550;19.254;2024-03-08T04:37:29;58.80;;;25.80;;
74620;SDS011;75998;47.550;19.254;2024-03-08T04:40:00;62.63;;;29.33;;
74620;SDS011;75998;47.550;19.254;2024-03-08T04:42:28;64.72;;;30.13;;
74620;SDS011;75998;47.550;19.254;2024-03-08T04:44:55;67.75;;;29.42;;
74620;SDS011;75998;47.550;19.254;2024-03-08T04:47:20;64.15;;;30.08;;
74620;SDS011;75998;47.550;19.254;2024-03-08T04:49:56;72.22;;;33.63;;
74620;SDS011;75998;47.550;19.254;2024-03-08T04:52:23;68.47;;;29.20;;
74620;SDS011;75998;47.550;19.254;2024-03-08T04:54:48;73.28;;;33.58;;
74620;SDS011;75998;47.550;19.254;2024-03-08T04:57:17;68.05;;;31.75;;
74620;SDS011;75998;47.550;19.254;2024-03-08T04:59:46;57.72;;;25.75;;
74620;SDS011;75998;47.550;19.254;2024-03-08T05:02:11;67.93;;;30.75;;
74620;SDS011;75998;47.550;19.254;2024-03-08T05:04:39;60.83;;;29.50;;
74620;SDS011;75998;47.550;19.254;2024-03-08T05:07:05;59.53;;;26.80;;
74620;SDS011;75998;47.550;19.254;2024-03-08T05:09:30;72.50;;;32.28;;
74620;SDS011;75998;47.550;19.254;2024-03-08T05:11:59;70.30;;;30.90;;
74620;SDS011;75998;47.550;19.254;2024-03-08T05:14:24;75.35;;;31.73;;
74620;SDS011;75998;47.550;19.254;2024-03-08T05:16:50;59.28;;;28.27;;
74620;SDS011;75998;47.550;19.254;2024-03-08T05:19:18;59.38;;;28.00;;
74620;SDS011;75998;47.550;19.254;2024-03-08T05:21:45;57.40;;;26.80;;
74620;SDS011;75998;47.550;19.254;2024-03-08T05:24:11;58.38;;;26.05;;
74620;SDS011;75998;47.550;19.254;2024-03-08T05:26:38;71.40;;;29.98;;
74620;SDS011;75998;47.550;19.254;2024-03-08T05:29:04;68.15;;;30.48;;
74620;SDS011;75998;47.550;19.254;2024-03-08T05:31:29;81.47;;;33.42;;
74620;SDS011;75998;47.550;19.254;2024-03-08T05:34:03;68.03;;;31.25;;
74620;SDS011;75998;47.550;19.254;2024-03-08T05:36:29;79.78;;;33.78;;
74620;SDS011;75998;47.550;19.254;2024-03-08T05:38:55;65.88;;;30.67;;
74620;SDS011;75998;47.550;19.254;2024-03-08T05:41:20;64.40;;;27.38;;
74620;SDS011;75998;47.550;19.254;2024-03-08T05:43:48;73.35;;;28.83;;
74620;SDS011;75998;47.550;19.254;2024-03-08T05:46:15;71.15;;;32.28;;
74620;SDS011;75998;47.550;19.254;2024-03-08T05:48:41;76.07;;;32.78;;
74620;SDS011;75998;47.550;19.254;2024-03-08T05:51:06;76.35;;;34.53;;
74620;SDS011;75998;47.550;19.254;2024-03-08T05:53:32;64.22;;;29.75;;
74620;SDS011;75998;47.550;19.254;2024-03-08T05:55:58;59.78;;;27.48;;
74620;SDS011;75998;47.550;19.254;2024-03-08T05:58:26;53.20;;;23.13;;
74620;SDS011;75998;47.550;19.254;2024-03-08T06:00:51;83.72;;;41.08;;
74620;SDS011;75998;47.550;19.254;2024-03-08T06:03:20;63.95;;;30.35;;
74620;SDS011;75998;47.550;19.254;2024-03-08T06:05:47;74.28;;;33.05;;
74620;SDS011;75998;47.550;19.254;2024-03-08T06:08:13;73.20;;;33.00;;
74620;SDS011;75998;47.550;19.254;2024-03-08T06:10:41;71.15;;;37.13;;
74620;SDS011;75998;47.550;19.254;2024-03-08T06:13:07;72.90;;;34.83;;
74620;SDS011;75998;47.550;19.254;2024-03-08T06:15:33;75.95;;;33.15;;
74620;SDS011;75998;47.550;19.254;2024-03-08T06:18:01;108.82;;;48.67;;
74620;SDS011;75998;47.550;19.254;2024-03-08T06:20:27;87.50;;;38.38;;
74620;SDS011;75998;47.550;19.254;2024-03-08T06:23:00;67.63;;;34.27;;
74620;SDS011;75998;47.550;19.254;2024-03-08T06:25:29;73.32;;;37.28;;
74620;SDS011;75998;47.550;19.254;2024-03-08T06:27:57;67.95;;;31.60;;
74620;SDS011;75998;47.550;19.254;2024-03-08T06:30:27;80.38;;;40.03;;
74620;SDS011;75998;47.550;19.254;2024-03-08T06:32:56;65.15;;;32.22;;
74620;SDS011;75998;47.550;19.254;2024-03-08T06:35:21;67.50;;;32.15;;
74620;SDS011;75998;47.550;19.254;2024-03-08T06:37:47;79.90;;;38.38;;
74620;SDS011;75998;47.550;19.254;2024-03-08T06:40:15;68.63;;;32.08;;
74620;SDS011;75998;47.550;19.254;2024-03-08T06:42:43;63.00;;;30.13;;
74620;SDS011;75998;47.550;19.254;2024-03-08T06:45:11;66.28;;;33.45;;
74620;SDS011;75998;47.550;19.254;2024-03-08T06:47:38;71.80;;;32.97;;
74620;SDS011;75998;47.550;19.254;2024-03-08T06:50:06;68.90;;;34.47;;
74620;SDS011;75998;47.550;19.254;2024-03-08T06:52:38;73.78;;;34.58;;
74620;SDS011;75998;47.550;19.254;2024-03-08T06:55:08;65.80;;;33.35;;
74620;SDS011;75998;47.550;19.254;2024-03-08T06:57:39;71.95;;;37.08;;
74620;SDS011;75998;47.550;19.254;2024-03-08T07:00:08;70.68;;;31.52;;
74620;SDS011;75998;47.550;19.254;2024-03-08T07:02:37;77.55;;;38.50;;
74620;SDS011;75998;47.550;19.254;2024-03-08T07:05:04;60.40;;;29.27;;
74620;SDS011;75998;47.550;19.254;2024-03-08T07:07:30;65.93;;;31.27;;
74620;SDS011;75998;47.550;19.254;2024-03-08T07:09:57;60.67;;;25.30;;
74620;SDS011;75998;47.550;19.254;2024-03-08T07:12:22;73.93;;;35.28;;
74620;SDS011;75998;47.550;19.254;2024-03-08T07:14:48;70.07;;;31.77;;
74620;SDS011;75998;47.550;19.254;2024-03-08T07:17:14;78.82;;;37.00;;
74620;SDS011;75998;47.550;19.254;2024-03-08T07:19:39;80.30;;;37.05;;
74620;SDS011;75998;47.550;19.254;2024-03-08T07:22:11;71.38;;;35.17;;
74620;SDS011;75998;47.550;19.254;2024-03-08T07:24:37;73.00;;;35.65;;
74620;SDS011;75998;47.550;19.254;2024-03-08T07:27:23;77.80;;;39.05;;
74620;SDS011;75998;47.550;19.254;2024-03-08T07:29:48;73.82;;;36.50;;
74620;SDS011;75998;47.550;19.254;2024-03-08T07:32:14;74.72;;;32.10;;
74620;SDS011;75998;47.550;19.254;2024-03-08T07:34:49;76.88;;;34.72;;
74620;SDS011;75998;47.550;19.254;2024-03-08T07:37:18;79.50;;;35.30;;
74620;SDS011;75998;47.550;19.254;2024-03-08T07:39:45;66.97;;;31.73;;
74620;SDS011;75998;47.550;19.254;2024-03-08T07:42:11;70.75;;;32.95;;
74620;SDS011;75998;47.550;19.254;2024-03-08T07:44:37;74.93;;;35.20;;
74620;SDS011;75998;47.550;19.254;2024-03-08T07:47:03;63.55;;;30.02;;
74620;SDS011;75998;47.550;19.254;2024-03-08T07:49:29;83.18;;;37.17;;
74620;SDS011;75998;47.550;19.254;2024-03-08T07:51:55;80.28;;;37.85;;
74620;SDS011;75998;47.550;19.254;2024-03-08T07:54:21;75.13;;;36.60;;
74620;SDS011;75998;47.550;19.254;2024-03-08T07:56:47;79.30;;;34.90;;
74620;SDS011;75998;47.550;19.254;2024-03-08T07:59:12;81.93;;;34.95;;
74620;SDS011;75998;47.550;19.254;2024-03-08T08:01:37;58.95;;;29.35;;
74620;SDS011;75998;47.550;19.254;2024-03-08T08:04:03;90.03;;;41.30;;
74620;SDS011;75998;47.550;19.254;2024-03-08T08:06:28;87.10;;;40.00;;
74620;SDS011;75998;47.550;19.254;2024-03-08T08:08:57;85.75;;;40.78;;
74620;SDS011;75998;47.550;19.254;2024-03-08T08:11:25;75.25;;;32.80;;
74620;SDS011;75998;47.550;19.254;2024-03-08T08:13:52;79.03;;;36.20;;
74620;SDS011;75998;47.550;19.254;2024-03-08T08:16:20;75.25;;;36.72;;
74620;SDS011;75998;47.550;19.254;2024-03-08T08:18:45;101.00;;;41.70;;
74620;SDS011;75998;47.550;19.254;2024-03-08T08:21:13;100.50;;;42.90;;
74620;SDS011;75998;47.550;19.254;2024-03-08T08:23:39;94.78;;;41.85;;
74620;SDS011;75998;47.550;19.254;2024-03-08T08:26:05;90.40;;;36.83;;
74620;SDS011;75998;47.550;19.254;2024-03-08T08:28:32;81.65;;;33.90;;
74620;SDS011;75998;47.550;19.254;2024-03-08T08:30:58;96.03;;;43.75;;
74620;SDS011;75998;47.550;19.254;2024-03-08T08:33:24;106.63;;;45.00;;
74620;SDS011;75998;47.550;19.254;2024-03-08T08:35:50;99.65;;;43.80;;
74620;SDS011;75998;47.550;19.254;2024-03-08T08:38:19;84.55;;;35.42;;
74620;SDS011;75998;47.550;19.254;2024-03-08T08:40:45;95.88;;;40.10;;
74620;SDS011;75998;47.550;19.254;2024-03-08T08:43:12;109.25;;;43.45;;
74620;SDS011;75998;47.550;19.254;2024-03-08T08:45:38;64.15;;;27.27;;
74620;SDS011;75998;47.550;19.254;2024-03-08T08:48:04;75.88;;;31.77;;
74620;SDS011;75998;47.550;19.254;2024-03-08T08:50:30;98.50;;;41.65;;
74620;SDS011;75998;47.550;19.254;2024-03-08T08:52:56;97.60;;;41.70;;
74620;SDS011;75998;47.550;19.254;2024-03-08T08:55:22;88.07;;;34.25;;
74620;SDS011;75998;47.550;19.254;2024-03-08T08:57:50;92.18;;;40.88;;
74620;SDS011;75998;47.550;19.254;2024-03-08T09:00:17;99.70;;;43.28;;
74620;SDS011;75998;47.550;19.254;2024-03-08T09:02:45;92.43;;;39.10;;
74620;SDS011;75998;47.550;19.254;2024-03-08T09:05:10;89.35;;;38.58;;
74620;SDS011;75998;47.550;19.254;2024-03-08T09:07:42;98.22;;;43.28;;
74620;SDS011;75998;47.550;19.254;2024-03-08T09:10:10;97.57;;;38.72;;
74620;SDS011;75998;47.550;19.254;2024-03-08T09:12:37;104.38;;;39.65;;
74620;SDS011;75998;47.550;19.254;2024-03-08T09:15:04;98.05;;;39.90;;
74620;SDS011;75998;47.550;19.254;2024-03-08T09:17:33;96.10;;;36.85;;
74620;SDS011;75998;47.550;19.254;2024-03-08T09:19:59;93.57;;;40.35;;
74620;SDS011;75998;47.550;19.254;2024-03-08T09:22:24;90.70;;;38.42;;
74620;SDS011;75998;47.550;19.254;2024-03-08T09:24:50;114.97;;;47.53;;
74620;SDS011;75998;47.550;19.254;2024-03-08T09:27:15;111.53;;;46.72;;
74620;SDS011;75998;47.550;19.254;2024-03-08T09:29:41;104.20;;;39.40;;
74620;SDS011;75998;47.550;19.254;2024-03-08T09:32:06;109.13;;;45.75;;
74620;SDS011;75998;47.550;19.254;2024-03-08T09:34:32;118.90;;;48.28;;
74620;SDS011;75998;47.550;19.254;2024-03-08T09:36:57;113.18;;;41.17;;
74620;SDS011;75998;47.550;19.254;2024-03-08T09:39:23;98.68;;;43.05;;
74620;SDS011;75998;47.550;19.254;2024-03-08T09:41:48;106.60;;;40.45;;
74620;SDS011;75998;47.550;19.254;2024-03-08T09:44:17;84.72;;;35.88;;
74620;SDS011;75998;47.550;19.254;2024-03-08T09:46:44;70.28;;;29.00;;
74620;SDS011;75998;47.550;19.254;2024-03-08T09:49:12;91.82;;;42.67;;
74620;SDS011;75998;47.550;19.254;2024-03-08T09:51:38;94.07;;;40.50;;
74620;SDS011;75998;47.550;19.254;2024-03-08T09:54:05;85.63;;;39.00;;
74620;SDS011;75998;47.550;19.254;2024-03-08T09:56:34;75.47;;;34.15;;
74620;SDS011;75998;47.550;19.254;2024-03-08T09:59:01;84.00;;;39.67;;
74620;SDS011;75998;47.550;19.254;2024-03-08T10:01:36;85.25;;;36.90;;
74620;SDS011;75998;47.550;19.254;2024-03-08T10:04:03;71.05;;;31.38;;
74620;SDS011;75998;47.550;19.254;2024-03-08T10:06:29;79.60;;;36.45;;
74620;SDS011;75998;47.550;19.254;2024-03-08T10:08:54;87.20;;;38.83;;
74620;SDS011;75998;47.550;19.254;2024-03-08T10:11:20;83.22;;;38.60;;
74620;SDS011;75998;47.550;19.254;2024-03-08T10:13:47;73.45;;;33.80;;
74620;SDS011;75998;47.550;19.254;2024-03-08T10:16:13;70.80;;;31.10;;
74620;SDS011;75998;47.550;19.254;2024-03-08T10:18:39;67.78;;;32.42;;
74620;SDS011;75998;47.550;19.254;2024-03-08T10:21:06;74.55;;;32.70;;
74620;SDS011;75998;47.550;19.254;2024-03-08T10:23:35;79.03;;;34.45;;
74620;SDS011;75998;47.550;19.254;2024-03-08T10:28:40;76.65;;;39.55;;
74620;SDS011;75998;47.550;19.254;2024-03-08T10:31:07;72.30;;;35.75;;
74620;SDS011;75998;47.550;19.254;2024-03-08T10:33:32;77.45;;;36.10;;
74620;SDS011;75998;47.550;19.254;2024-03-08T10:35:58;77.05;;;36.83;;
74620;SDS011;75998;47.550;19.254;2024-03-08T10:38:24;86.68;;;38.60;;
74620;SDS011;75998;47.550;19.254;2024-03-08T10:40:51;74.43;;;34.83;;
74620;SDS011;75998;47.550;19.254;2024-03-08T10:43:22;81.60;;;38.17;;
74620;SDS011;75998;47.550;19.254;2024-03-08T10:45:58;71.20;;;34.97;;
74620;SDS011;75998;47.550;19.254;2024-03-08T10:48:43;71.75;;;32.88;;
74620;SDS011;75998;47.550;19.254;2024-03-08T10:51:09;69.93;;;36.00;;
74620;SDS011;75998;47.550;19.254;2024-03-08T10:53:36;81.15;;;38.58;;
74620;SDS011;75998;47.550;19.254;2024-03-08T10:56:06;73.00;;;37.35;;
74620;SDS011;75998;47.550;19.254;2024-03-08T10:58:32;75.72;;;37.40;;
74620;SDS011;75998;47.550;19.254;2024-03-08T11:00:59;67.10;;;35.28;;
74620;SDS011;75998;47.550;19.254;2024-03-08T11:08:54;57.92;;;29.85;;
74620;SDS011;75998;47.550;19.254;2024-03-08T11:13:59;48.80;;;28.05;;
74620;SDS011;75998;47.550;19.254;2024-03-08T11:19:26;50.45;;;29.17;;
74620;SDS011;75998;47.550;19.254;2024-03-08T11:21:44;51.95;;;28.33;;
74620;SDS011;75998;47.550;19.254;2024-03-08T11:24:10;57.75;;;30.30;;
74620;SDS011;75998;47.550;19.254;2024-03-08T11:26:38;55.55;;;30.90;;
74620;SDS011;75998;47.550;19.254;2024-03-08T11:32:33;64.43;;;33.50;;
74620;SDS011;75998;47.550;19.254;2024-03-08T11:34:53;62.85;;;31.85;;
74620;SDS011;75998;47.550;19.254;2024-03-08T11:37:19;63.20;;;33.35;;
74620;SDS011;75998;47.550;19.254;2024-03-08T11:39:49;54.70;;;28.80;;
74620;SDS011;75998;47.550;19.254;2024-03-08T11:42:16;59.63;;;33.35;;
74620;SDS011;75998;47.550;19.254;2024-03-08T11:44:43;59.65;;;33.15;;
74620;SDS011;75998;47.550;19.254;2024-03-08T11:47:12;65.78;;;32.13;;
74620;SDS011;75998;47.550;19.254;2024-03-08T11:49:38;54.45;;;32.00;;
74620;SDS011;75998;47.550;19.254;2024-03-08T11:52:05;53.75;;;30.67;;
74620;SDS011;75998;47.550;19.254;2024-03-08T11:54:30;52.90;;;32.85;;
74620;SDS011;75998;47.550;19.254;2024-03-08T11:56:56;64.55;;;34.47;;
74620;SDS011;75998;47.550;19.254;2024-03-08T11:59:28;53.05;;;30.83;;
74620;SDS011;75998;47.550;19.254;2024-03-08T12:02:02;55.70;;;31.77;;
74620;SDS011;75998;47.550;19.254;2024-03-08T12:04:29;53.35;;;29.15;;
74620;SDS011;75998;47.550;19.254;2024-03-08T12:06:56;53.75;;;31.10;;
74620;SDS011;75998;47.550;19.254;2024-03-08T12:09:26;48.80;;;27.48;;
74620;SDS011;75998;47.550;19.254;2024-03-08T12:11:52;44.03;;;25.35;;
74620;SDS011;75998;47.550;19.254;2024-03-08T12:14:17;55.08;;;31.48;;
74620;SDS011;75998;47.550;19.254;2024-03-08T12:16:43;55.80;;;30.23;;
74620;SDS011;75998;47.550;19.254;2024-03-08T12:19:09;50.95;;;29.13;;
74620;SDS011;75998;47.550;19.254;2024-03-08T12:21:35;51.95;;;29.27;;
74620;SDS011;75998;47.550;19.254;2024-03-08T12:24:05;49.67;;;28.38;;
74620;SDS011;75998;47.550;19.254;2024-03-08T12:26:34;46.33;;;24.50;;
74620;SDS011;75998;47.550;19.254;2024-03-08T12:31:54;59.15;;;31.58;;
74620;SDS011;75998;47.550;19.254;2024-03-08T12:34:23;63.38;;;34.63;;
74620;SDS011;75998;47.550;19.254;2024-03-08T12:36:49;64.35;;;34.97;;
74620;SDS011;75998;47.550;19.254;2024-03-08T12:39:18;69.85;;;38.00;;
74620;SDS011;75998;47.550;19.254;2024-03-08T12:42:02;75.75;;;36.92;;
74620;SDS011;75998;47.550;19.254;2024-03-08T12:44:29;78.80;;;42.42;;
74620;SDS011;75998;47.550;19.254;2024-03-08T12:46:54;68.15;;;35.08;;
74620;SDS011;75998;47.550;19.254;2024-03-08T12:49:19;68.95;;;35.47;;
74620;SDS011;75998;47.550;19.254;2024-03-08T12:51:47;65.55;;;33.03;;
74620;SDS011;75998;47.550;19.254;2024-03-08T12:54:13;77.53;;;38.40;;
74620;SDS011;75998;47.550;19.254;2024-03-08T12:56:38;72.15;;;38.40;;
74620;SDS011;75998;47.550;19.254;2024-03-08T12:59:05;77.22;;;41.70;;
74620;SDS011;75998;47.550;19.254;2024-03-08T13:01:33;87.20;;;43.20;;
74620;SDS011;75998;47.550;19.254;2024-03-08T13:03:59;82.63;;;44.25;;
74620;SDS011;75998;47.550;19.254;2024-03-08T13:06:28;78.50;;;42.60;;
74620;SDS011;75998;47.550;19.254;2024-03-08T13:08:56;59.60;;;29.67;;
74620;SDS011;75998;47.550;19.254;2024-03-08T13:11:23;60.90;;;32.28;;
74620;SDS011;75998;47.550;19.254;2024-03-08T13:13:50;74.93;;;38.25;;
74620;SDS011;75998;47.550;19.254;2024-03-08T13:16:19;71.47;;;36.17;;
74620;SDS011;75998;47.550;19.254;2024-03-08T13:18:47;70.93;;;40.30;;
74620;SDS011;75998;47.550;19.254;2024-03-08T13:21:14;69.10;;;36.58;;
74620;SDS011;75998;47.550;19.254;2024-03-08T13:23:40;70.75;;;39.03;;
74620;SDS011;75998;47.550;19.254;2024-03-08T13:26:10;67.00;;;37.78;;
74620;SDS011;75998;47.550;19.254;2024-03-08T13:28:46;66.10;;;35.25;;
74620;SDS011;75998;47.550;19.254;2024-03-08T13:31:19;60.45;;;32.70;;
74620;SDS011;75998;47.550;19.254;2024-03-08T13:33:47;56.75;;;28.67;;
74620;SDS011;75998;47.550;19.254;2024-03-08T13:36:14;74.15;;;39.45;;
74620;SDS011;75998;47.550;19.254;2024-03-08T13:38:43;68.15;;;35.55;;
74620;SDS011;75998;47.550;19.254;2024-03-08T13:41:10;71.95;;;36.47;;
74620;SDS011;75998;47.550;19.254;2024-03-08T13:43:37;65.28;;;38.42;;
74620;SDS011;75998;47.550;19.254;2024-03-08T13:46:03;68.97;;;38.67;;
74620;SDS011;75998;47.550;19.254;2024-03-08T13:48:29;64.38;;;36.40;;
74620;SDS011;75998;47.550;19.254;2024-03-08T13:50:55;61.88;;;35.20;;
74620;SDS011;75998;47.550;19.254;2024-03-08T13:53:22;67.18;;;35.50;;
74620;SDS011;75998;47.550;19.254;2024-03-08T13:55:48;60.83;;;34.92;;
74620;SDS011;75998;47.550;19.254;2024-03-08T13:58:15;61.80;;;33.78;;
74620;SDS011;75998;47.550;19.254;2024-03-08T14:00:41;63.92;;;32.92;;
74620;SDS011;75998;47.550;19.254;2024-03-08T14:03:09;61.25;;;34.28;;
74620;SDS011;75998;47.550;19.254;2024-03-08T14:05:38;70.88;;;38.92;;
74620;SDS011;75998;47.550;19.254;2024-03-08T14:08:04;66.50;;;37.80;;
74620;SDS011;75998;47.550;19.254;2024-03-08T14:10:33;62.40;;;34.17;;
74620;SDS011;75998;47.550;19.254;2024-03-08T14:13:04;71.68;;;35.55;;
74620;SDS011;75998;47.550;19.254;2024-03-08T14:15:31;62.63;;;34.85;;
74620;SDS011;75998;47.550;19.254;2024-03-08T14:17:57;65.68;;;37.00;;
74620;SDS011;75998;47.550;19.254;2024-03-08T14:20:23;58.80;;;32.72;;
74620;SDS011;75998;47.550;19.254;2024-03-08T14:22:53;64.75;;;35.05;;
74620;SDS011;75998;47.550;19.254;2024-03-08T14:25:20;75.75;;;39.10;;
74620;SDS011;75998;47.550;19.254;2024-03-08T14:27:49;64.85;;;36.65;;
74620;SDS011;75998;47.550;19.254;2024-03-08T14:30:18;73.60;;;34.72;;